Terminal Aerodrome Forecast
Issued by NWS Jackson, KY

Home | Current Version | Previous Version | Text Only | Print | Product List | Glossary On
Versions: 1 2 3 4 5 6 7 8 9 10 11 12 13 14 15 16 17 18 19 20
281
FTUS43 KJKL 291138
TAFJKL
TAF
KJKL 291138Z 2912/3012 34003KT P6SM BKN025
     FM291430 35004KT P6SM SCT025 BKN035
     FM291600 34005KT P6SM SCT035=

USA.gov is the U.S. government's official web portal to all federal, state and local government web resources and services.